Terminal Aerodrome Forecast
Issued by NWS

Home | Current Version | Previous Version | Text Only | Print | Product List | Glossary On
Versions: 1 2 3 4 5 6 7 8 9 10 11 12 13 14
637
FTUS44 KTSA 261722
TAFFYV
TAF
KFYV 261722Z 2618/2718 14014G17KT P6SM BKN100
     FM270000 15005KT P6SM VCSH BKN050
     FM270900 12003KT P6SM BKN025
      TEMPO 2710/2714 4SM BR OVC015
     FM271500 15007G15KT P6SM OVC015=

USA.gov is the U.S. government's official web portal to all federal, state and local government web resources and services.